sensor_id;sensor_type;location;lat;lon;timestamp;P1;durP1;ratioP1;P2;durP2;ratioP2
74528;SDS011;63009;52.584;5.932;2024-03-23T00:51:07;19.73;;;3.85;;
74528;SDS011;63009;52.584;5.932;2024-03-23T00:53:33;20.13;;;5.15;;
74528;SDS011;63009;52.584;5.932;2024-03-23T00:55:58;16.85;;;3.40;;
74528;SDS011;63009;52.584;5.932;2024-03-23T00:58:24;15.00;;;2.88;;
74528;SDS011;63009;52.584;5.932;2024-03-23T01:00:50;13.43;;;3.45;;
74528;SDS011;63009;52.584;5.932;2024-03-23T01:03:15;22.50;;;4.13;;
74528;SDS011;63009;52.584;5.932;2024-03-23T01:05:41;12.70;;;2.63;;
74528;SDS011;63009;52.584;5.932;2024-03-23T01:08:06;12.70;;;3.15;;
74528;SDS011;63009;52.584;5.932;2024-03-23T01:10:32;15.35;;;2.78;;
74528;SDS011;63009;52.584;5.932;2024-03-23T01:12:57;16.27;;;3.72;;
74528;SDS011;63009;52.584;5.932;2024-03-23T01:15:23;19.02;;;3.45;;
74528;SDS011;63009;52.584;5.932;2024-03-23T01:17:48;9.13;;;2.80;;
74528;SDS011;63009;52.584;5.932;2024-03-23T01:20:14;13.25;;;3.60;;
74528;SDS011;63009;52.584;5.932;2024-03-23T01:22:39;13.05;;;3.50;;
74528;SDS011;63009;52.584;5.932;2024-03-23T01:25:05;17.25;;;3.70;;
74528;SDS011;63009;52.584;5.932;2024-03-23T01:27:30;14.70;;;5.78;;
74528;SDS011;63009;52.584;5.932;2024-03-23T01:29:56;18.90;;;3.95;;
74528;SDS011;63009;52.584;5.932;2024-03-23T01:32:21;17.17;;;3.85;;
74528;SDS011;63009;52.584;5.932;2024-03-23T01:34:46;14.70;;;3.58;;
74528;SDS011;63009;52.584;5.932;2024-03-23T01:37:12;16.63;;;3.45;;
74528;SDS011;63009;52.584;5.932;2024-03-23T01:39:37;13.88;;;2.90;;
74528;SDS011;63009;52.584;5.932;2024-03-23T01:42:03;16.13;;;3.45;;
74528;SDS011;63009;52.584;5.932;2024-03-23T01:44:29;13.57;;;3.42;;
74528;SDS011;63009;52.584;5.932;2024-03-23T01:46:54;14.93;;;4.47;;
74528;SDS011;63009;52.584;5.932;2024-03-23T01:49:20;20.75;;;5.03;;
74528;SDS011;63009;52.584;5.932;2024-03-23T01:51:46;16.35;;;3.88;;
74528;SDS011;63009;52.584;5.932;2024-03-23T01:54:11;13.07;;;3.47;;
74528;SDS011;63009;52.584;5.932;2024-03-23T01:56:37;12.80;;;2.75;;
74528;SDS011;63009;52.584;5.932;2024-03-23T01:59:03;14.57;;;3.53;;
74528;SDS011;63009;52.584;5.932;2024-03-23T02:01:29;16.92;;;3.92;;
74528;SDS011;63009;52.584;5.932;2024-03-23T02:03:55;17.02;;;4.25;;
74528;SDS011;63009;52.584;5.932;2024-03-23T02:06:21;19.08;;;3.90;;
74528;SDS011;63009;52.584;5.932;2024-03-23T02:08:47;22.98;;;3.75;;
74528;SDS011;63009;52.584;5.932;2024-03-23T02:11:13;15.55;;;4.35;;
74528;SDS011;63009;52.584;5.932;2024-03-23T02:13:39;13.77;;;3.30;;
74528;SDS011;63009;52.584;5.932;2024-03-23T02:16:04;18.08;;;4.28;;
74528;SDS011;63009;52.584;5.932;2024-03-23T02:18:31;13.13;;;3.38;;
74528;SDS011;63009;52.584;5.932;2024-03-23T02:20:56;12.43;;;3.33;;
74528;SDS011;63009;52.584;5.932;2024-03-23T02:23:22;15.23;;;3.65;;
74528;SDS011;63009;52.584;5.932;2024-03-23T02:25:47;15.88;;;3.90;;
74528;SDS011;63009;52.584;5.932;2024-03-23T02:28:12;9.82;;;2.70;;
74528;SDS011;63009;52.584;5.932;2024-03-23T02:30:38;16.80;;;3.10;;
74528;SDS011;63009;52.584;5.932;2024-03-23T02:33:03;14.95;;;3.20;;
74528;SDS011;63009;52.584;5.932;2024-03-23T02:35:29;11.23;;;2.88;;
74528;SDS011;63009;52.584;5.932;2024-03-23T02:37:55;15.60;;;3.08;;
74528;SDS011;63009;52.584;5.932;2024-03-23T02:40:22;15.13;;;3.22;;
74528;SDS011;63009;52.584;5.932;2024-03-23T02:42:48;18.95;;;3.50;;
74528;SDS011;63009;52.584;5.932;2024-03-23T02:45:14;13.95;;;2.47;;
74528;SDS011;63009;52.584;5.932;2024-03-23T02:47:39;15.52;;;2.72;;
74528;SDS011;63009;52.584;5.932;2024-03-23T02:50:05;11.65;;;2.50;;
74528;SDS011;63009;52.584;5.932;2024-03-23T02:52:31;9.05;;;2.42;;
74528;SDS011;63009;52.584;5.932;2024-03-23T02:54:56;12.07;;;2.88;;
74528;SDS011;63009;52.584;5.932;2024-03-23T02:57:21;12.10;;;2.10;;
74528;SDS011;63009;52.584;5.932;2024-03-23T02:59:47;12.55;;;3.08;;
74528;SDS011;63009;52.584;5.932;2024-03-23T03:02:13;9.52;;;1.80;;
74528;SDS011;63009;52.584;5.932;2024-03-23T03:04:38;8.98;;;1.77;;
74528;SDS011;63009;52.584;5.932;2024-03-23T03:07:04;14.20;;;3.00;;
74528;SDS011;63009;52.584;5.932;2024-03-23T03:09:29;11.77;;;2.70;;
74528;SDS011;63009;52.584;5.932;2024-03-23T03:11:55;9.70;;;2.40;;
74528;SDS011;63009;52.584;5.932;2024-03-23T03:14:20;9.77;;;3.08;;
74528;SDS011;63009;52.584;5.932;2024-03-23T03:16:46;9.57;;;1.98;;
74528;SDS011;63009;52.584;5.932;2024-03-23T03:19:11;9.05;;;2.15;;
74528;SDS011;63009;52.584;5.932;2024-03-23T03:21:36;8.63;;;1.80;;
74528;SDS011;63009;52.584;5.932;2024-03-23T03:24:02;12.23;;;2.13;;
74528;SDS011;63009;52.584;5.932;2024-03-23T03:26:28;10.27;;;2.10;;
74528;SDS011;63009;52.584;5.932;2024-03-23T03:28:54;13.60;;;2.65;;
74528;SDS011;63009;52.584;5.932;2024-03-23T03:31:19;8.80;;;1.45;;
74528;SDS011;63009;52.584;5.932;2024-03-23T03:33:45;13.98;;;2.28;;
74528;SDS011;63009;52.584;5.932;2024-03-23T03:36:11;11.70;;;2.10;;
74528;SDS011;63009;52.584;5.932;2024-03-23T03:38:36;8.77;;;1.75;;
74528;SDS011;63009;52.584;5.932;2024-03-23T03:41:02;10.88;;;2.17;;
74528;SDS011;63009;52.584;5.932;2024-03-23T03:43:27;8.60;;;1.80;;
74528;SDS011;63009;52.584;5.932;2024-03-23T03:45:53;8.52;;;1.55;;
74528;SDS011;63009;52.584;5.932;2024-03-23T03:48:19;8.98;;;1.88;;
74528;SDS011;63009;52.584;5.932;2024-03-23T03:50:45;9.32;;;2.42;;
74528;SDS011;63009;52.584;5.932;2024-03-23T03:53:10;13.73;;;2.17;;
74528;SDS011;63009;52.584;5.932;2024-03-23T03:55:36;7.25;;;1.70;;
74528;SDS011;63009;52.584;5.932;2024-03-23T03:58:01;12.55;;;2.28;;
74528;SDS011;63009;52.584;5.932;2024-03-23T04:00:27;14.57;;;1.90;;
74528;SDS011;63009;52.584;5.932;2024-03-23T04:02:52;9.23;;;1.95;;
74528;SDS011;63009;52.584;5.932;2024-03-23T04:05:18;12.75;;;2.53;;
74528;SDS011;63009;52.584;5.932;2024-03-23T04:07:44;8.82;;;1.70;;
74528;SDS011;63009;52.584;5.932;2024-03-23T04:10:10;12.55;;;1.95;;
74528;SDS011;63009;52.584;5.932;2024-03-23T04:12:36;7.40;;;1.77;;
74528;SDS011;63009;52.584;5.932;2024-03-23T04:15:01;14.23;;;2.13;;
74528;SDS011;63009;52.584;5.932;2024-03-23T04:17:29;11.70;;;1.83;;
74528;SDS011;63009;52.584;5.932;2024-03-23T04:19:57;8.73;;;1.88;;
74528;SDS011;63009;52.584;5.932;2024-03-23T04:22:25;13.68;;;2.20;;
74528;SDS011;63009;52.584;5.932;2024-03-23T04:24:54;11.05;;;1.90;;
74528;SDS011;63009;52.584;5.932;2024-03-23T04:27:23;16.80;;;2.15;;
74528;SDS011;63009;52.584;5.932;2024-03-23T04:29:52;9.35;;;1.70;;
74528;SDS011;63009;52.584;5.932;2024-03-23T04:32:20;10.07;;;1.95;;
74528;SDS011;63009;52.584;5.932;2024-03-23T04:34:46;13.68;;;2.08;;
74528;SDS011;63009;52.584;5.932;2024-03-23T04:37:11;15.18;;;2.53;;
74528;SDS011;63009;52.584;5.932;2024-03-23T04:39:37;9.75;;;1.67;;
74528;SDS011;63009;52.584;5.932;2024-03-23T04:42:02;11.13;;;1.55;;
74528;SDS011;63009;52.584;5.932;2024-03-23T04:44:28;6.53;;;1.80;;
74528;SDS011;63009;52.584;5.932;2024-03-23T04:46:54;14.23;;;2.35;;
74528;SDS011;63009;52.584;5.932;2024-03-23T04:49:19;8.07;;;1.80;;
74528;SDS011;63009;52.584;5.932;2024-03-23T04:51:45;9.07;;;1.80;;
74528;SDS011;63009;52.584;5.932;2024-03-23T04:54:11;10.90;;;1.95;;
74528;SDS011;63009;52.584;5.932;2024-03-23T04:56:37;10.85;;;2.60;;
74528;SDS011;63009;52.584;5.932;2024-03-23T04:59:02;11.02;;;2.63;;
74528;SDS011;63009;52.584;5.932;2024-03-23T05:01:30;10.15;;;2.22;;
74528;SDS011;63009;52.584;5.932;2024-03-23T05:03:56;8.50;;;2.10;;
74528;SDS011;63009;52.584;5.932;2024-03-23T05:06:22;11.15;;;2.30;;
74528;SDS011;63009;52.584;5.932;2024-03-23T05:08:47;8.68;;;1.45;;
74528;SDS011;63009;52.584;5.932;2024-03-23T05:11:13;7.72;;;1.88;;
74528;SDS011;63009;52.584;5.932;2024-03-23T05:13:38;10.93;;;1.95;;
74528;SDS011;63009;52.584;5.932;2024-03-23T05:16:03;11.73;;;2.30;;
74528;SDS011;63009;52.584;5.932;2024-03-23T05:18:29;10.20;;;1.90;;
74528;SDS011;63009;52.584;5.932;2024-03-23T05:20:58;11.85;;;2.10;;
74528;SDS011;63009;52.584;5.932;2024-03-23T05:23:24;10.95;;;1.90;;
74528;SDS011;63009;52.584;5.932;2024-03-23T05:25:50;8.90;;;2.35;;
74528;SDS011;63009;52.584;5.932;2024-03-23T05:28:16;9.65;;;1.95;;
74528;SDS011;63009;52.584;5.932;2024-03-23T05:30:42;9.27;;;2.53;;
74528;SDS011;63009;52.584;5.932;2024-03-23T05:33:08;9.52;;;2.03;;
74528;SDS011;63009;52.584;5.932;2024-03-23T05:35:33;12.55;;;2.88;;
74528;SDS011;63009;52.584;5.932;2024-03-23T05:37:59;11.98;;;2.30;;
74528;SDS011;63009;52.584;5.932;2024-03-23T05:40:25;11.40;;;2.45;;
74528;SDS011;63009;52.584;5.932;2024-03-23T05:42:51;10.10;;;1.98;;
74528;SDS011;63009;52.584;5.932;2024-03-23T05:45:20;12.40;;;2.08;;
74528;SDS011;63009;52.584;5.932;2024-03-23T05:47:47;14.50;;;2.25;;
74528;SDS011;63009;52.584;5.932;2024-03-23T05:50:13;7.38;;;1.50;;
74528;SDS011;63009;52.584;5.932;2024-03-23T05:52:39;10.77;;;2.03;;
74528;SDS011;63009;52.584;5.932;2024-03-23T05:55:05;10.35;;;1.60;;
74528;SDS011;63009;52.584;5.932;2024-03-23T05:57:31;9.45;;;1.88;;
74528;SDS011;63009;52.584;5.932;2024-03-23T05:59:56;7.88;;;1.80;;
74528;SDS011;63009;52.584;5.932;2024-03-23T06:02:22;7.90;;;1.67;;
74528;SDS011;63009;52.584;5.932;2024-03-23T06:04:48;8.88;;;2.15;;
74528;SDS011;63009;52.584;5.932;2024-03-23T06:07:13;8.88;;;1.98;;
74528;SDS011;63009;52.584;5.932;2024-03-23T06:09:42;12.73;;;1.90;;
74528;SDS011;63009;52.584;5.932;2024-03-23T06:14:33;11.73;;;2.20;;
74528;SDS011;63009;52.584;5.932;2024-03-23T06:16:59;11.90;;;1.67;;
74528;SDS011;63009;52.584;5.932;2024-03-23T06:19:25;9.63;;;2.92;;
74528;SDS011;63009;52.584;5.932;2024-03-23T06:21:54;9.52;;;1.65;;
74528;SDS011;63009;52.584;5.932;2024-03-23T06:24:21;7.85;;;1.52;;
74528;SDS011;63009;52.584;5.932;2024-03-23T06:26:47;13.38;;;2.45;;
74528;SDS011;63009;52.584;5.932;2024-03-23T06:29:12;10.65;;;1.92;;
74528;SDS011;63009;52.584;5.932;2024-03-23T06:31:37;16.38;;;2.35;;
74528;SDS011;63009;52.584;5.932;2024-03-23T06:34:03;8.90;;;1.85;;
74528;SDS011;63009;52.584;5.932;2024-03-23T06:36:28;10.15;;;2.03;;
74528;SDS011;63009;52.584;5.932;2024-03-23T06:38:55;11.65;;;2.00;;
74528;SDS011;63009;52.584;5.932;2024-03-23T06:41:22;12.30;;;2.35;;
74528;SDS011;63009;52.584;5.932;2024-03-23T06:43:48;14.32;;;2.40;;
74528;SDS011;63009;52.584;5.932;2024-03-23T06:46:13;13.13;;;2.25;;
74528;SDS011;63009;52.584;5.932;2024-03-23T06:48:38;10.13;;;2.25;;
74528;SDS011;63009;52.584;5.932;2024-03-23T06:51:04;10.55;;;2.20;;
74528;SDS011;63009;52.584;5.932;2024-03-23T06:53:29;10.88;;;1.88;;
74528;SDS011;63009;52.584;5.932;2024-03-23T06:55:54;7.03;;;2.00;;
74528;SDS011;63009;52.584;5.932;2024-03-23T06:58:24;10.45;;;2.13;;
74528;SDS011;63009;52.584;5.932;2024-03-23T07:00:50;4.57;;;1.30;;
74528;SDS011;63009;52.584;5.932;2024-03-23T07:03:16;5.78;;;1.27;;
74528;SDS011;63009;52.584;5.932;2024-03-23T07:05:42;6.03;;;1.38;;
74528;SDS011;63009;52.584;5.932;2024-03-23T07:08:07;6.78;;;1.65;;
74528;SDS011;63009;52.584;5.932;2024-03-23T07:10:33;8.68;;;1.38;;
74528;SDS011;63009;52.584;5.932;2024-03-23T07:12:58;6.55;;;1.30;;
74528;SDS011;63009;52.584;5.932;2024-03-23T07:15:24;7.55;;;1.80;;
74528;SDS011;63009;52.584;5.932;2024-03-23T07:17:49;6.28;;;1.40;;
74528;SDS011;63009;52.584;5.932;2024-03-23T07:20:15;9.02;;;2.10;;
74528;SDS011;63009;52.584;5.932;2024-03-23T07:22:40;6.90;;;1.80;;
74528;SDS011;63009;52.584;5.932;2024-03-23T07:25:06;6.65;;;1.63;;
74528;SDS011;63009;52.584;5.932;2024-03-23T07:27:32;6.38;;;1.10;;
74528;SDS011;63009;52.584;5.932;2024-03-23T07:29:57;5.47;;;1.30;;
74528;SDS011;63009;52.584;5.932;2024-03-23T07:32:23;5.60;;;1.20;;
74528;SDS011;63009;52.584;5.932;2024-03-23T07:34:48;6.70;;;1.35;;
74528;SDS011;63009;52.584;5.932;2024-03-23T07:37:14;4.80;;;1.05;;
74528;SDS011;63009;52.584;5.932;2024-03-23T07:39:39;5.53;;;1.75;;
74528;SDS011;63009;52.584;5.932;2024-03-23T07:42:05;4.43;;;1.23;;
74528;SDS011;63009;52.584;5.932;2024-03-23T07:44:31;5.65;;;1.08;;
74528;SDS011;63009;52.584;5.932;2024-03-23T07:46:56;3.60;;;1.00;;
74528;SDS011;63009;52.584;5.932;2024-03-23T07:49:22;4.63;;;1.20;;
74528;SDS011;63009;52.584;5.932;2024-03-23T07:51:48;6.00;;;1.30;;
74528;SDS011;63009;52.584;5.932;2024-03-23T07:54:14;5.40;;;1.30;;
74528;SDS011;63009;52.584;5.932;2024-03-23T07:56:39;4.60;;;1.10;;
74528;SDS011;63009;52.584;5.932;2024-03-23T07:59:04;6.43;;;1.48;;
74528;SDS011;63009;52.584;5.932;2024-03-23T08:01:30;5.47;;;1.35;;
74528;SDS011;63009;52.584;5.932;2024-03-23T08:03:55;6.97;;;1.52;;
74528;SDS011;63009;52.584;5.932;2024-03-23T08:06:20;5.85;;;1.60;;
74528;SDS011;63009;52.584;5.932;2024-03-23T08:08:48;10.40;;;1.80;;
74528;SDS011;63009;52.584;5.932;2024-03-23T08:11:16;8.82;;;1.50;;
74528;SDS011;63009;52.584;5.932;2024-03-23T08:13:42;6.80;;;1.70;;
74528;SDS011;63009;52.584;5.932;2024-03-23T08:16:10;4.70;;;1.08;;
74528;SDS011;63009;52.584;5.932;2024-03-23T08:18:35;7.55;;;1.25;;
74528;SDS011;63009;52.584;5.932;2024-03-23T08:21:01;4.13;;;1.00;;
74528;SDS011;63009;52.584;5.932;2024-03-23T08:23:28;6.05;;;1.13;;
74528;SDS011;63009;52.584;5.932;2024-03-23T08:25:58;8.15;;;1.73;;
74528;SDS011;63009;52.584;5.932;2024-03-23T08:28:24;5.70;;;1.30;;
74528;SDS011;63009;52.584;5.932;2024-03-23T08:30:50;6.50;;;1.23;;
74528;SDS011;63009;52.584;5.932;2024-03-23T08:33:16;6.15;;;1.17;;
74528;SDS011;63009;52.584;5.932;2024-03-23T08:35:41;9.13;;;1.48;;
74528;SDS011;63009;52.584;5.932;2024-03-23T08:38:07;8.60;;;1.80;;
74528;SDS011;63009;52.584;5.932;2024-03-23T08:40:33;6.00;;;1.60;;
74528;SDS011;63009;52.584;5.932;2024-03-23T08:42:58;10.48;;;1.73;;
74528;SDS011;63009;52.584;5.932;2024-03-23T08:45:24;5.97;;;1.35;;
74528;SDS011;63009;52.584;5.932;2024-03-23T08:47:50;7.18;;;1.50;;
74528;SDS011;63009;52.584;5.932;2024-03-23T08:50:16;7.45;;;1.58;;
74528;SDS011;63009;52.584;5.932;2024-03-23T08:52:51;10.48;;;1.88;;
74528;SDS011;63009;52.584;5.932;2024-03-23T08:55:16;9.30;;;2.40;;
74528;SDS011;63009;52.584;5.932;2024-03-23T08:57:42;8.45;;;1.70;;
74528;SDS011;63009;52.584;5.932;2024-03-23T09:00:07;11.18;;;1.90;;
74528;SDS011;63009;52.584;5.932;2024-03-23T09:02:34;5.72;;;1.55;;
74528;SDS011;63009;52.584;5.932;2024-03-23T09:05:00;10.45;;;2.10;;
74528;SDS011;63009;52.584;5.932;2024-03-23T09:07:29;9.00;;;2.00;;
74528;SDS011;63009;52.584;5.932;2024-03-23T09:09:55;13.18;;;2.88;;
74528;SDS011;63009;52.584;5.932;2024-03-23T09:12:21;10.40;;;2.10;;
74528;SDS011;63009;52.584;5.932;2024-03-23T09:14:46;9.18;;;2.10;;
74528;SDS011;63009;52.584;5.932;2024-03-23T09:17:14;8.00;;;1.40;;
74528;SDS011;63009;52.584;5.932;2024-03-23T09:19:40;9.85;;;1.55;;
74528;SDS011;63009;52.584;5.932;2024-03-23T09:22:05;7.70;;;1.85;;
74528;SDS011;63009;52.584;5.932;2024-03-23T09:24:30;8.55;;;1.60;;
74528;SDS011;63009;52.584;5.932;2024-03-23T09:26:57;11.60;;;1.60;;
74528;SDS011;63009;52.584;5.932;2024-03-23T09:29:22;11.85;;;1.80;;
74528;SDS011;63009;52.584;5.932;2024-03-23T09:31:48;11.43;;;1.70;;
74528;SDS011;63009;52.584;5.932;2024-03-23T09:34:13;7.55;;;1.65;;
74528;SDS011;63009;52.584;5.932;2024-03-23T09:36:43;12.05;;;1.83;;
74528;SDS011;63009;52.584;5.932;2024-03-23T09:39:11;6.50;;;1.80;;
74528;SDS011;63009;52.584;5.932;2024-03-23T09:41:38;8.82;;;2.67;;
74528;SDS011;63009;52.584;5.932;2024-03-23T09:44:04;8.38;;;2.30;;
74528;SDS011;63009;52.584;5.932;2024-03-23T09:46:30;8.30;;;2.38;;
74528;SDS011;63009;52.584;5.932;2024-03-23T09:49:06;7.70;;;1.98;;
74528;SDS011;63009;52.584;5.932;2024-03-23T09:51:35;7.80;;;1.65;;
74528;SDS011;63009;52.584;5.932;2024-03-23T09:54:02;8.70;;;1.42;;
74528;SDS011;63009;52.584;5.932;2024-03-23T09:56:30;10.10;;;1.48;;
74528;SDS011;63009;52.584;5.932;2024-03-23T09:59:02;8.88;;;1.60;;
74528;SDS011;63009;52.584;5.932;2024-03-23T10:01:31;12.27;;;1.88;;
74528;SDS011;63009;52.584;5.932;2024-03-23T10:03:57;8.05;;;1.77;;
74528;SDS011;63009;52.584;5.932;2024-03-23T10:06:25;7.28;;;1.60;;
74528;SDS011;63009;52.584;5.932;2024-03-23T10:09:16;10.88;;;1.75;;
74528;SDS011;63009;52.584;5.932;2024-03-23T10:12:02;13.68;;;2.08;;
74528;SDS011;63009;52.584;5.932;2024-03-23T10:14:34;10.20;;;2.00;;
74528;SDS011;63009;52.584;5.932;2024-03-23T10:17:14;12.48;;;1.63;;
74528;SDS011;63009;52.584;5.932;2024-03-23T10:19:40;8.30;;;2.13;;
74528;SDS011;63009;52.584;5.932;2024-03-23T10:22:08;7.22;;;2.03;;
74528;SDS011;63009;52.584;5.932;2024-03-23T10:24:34;9.05;;;2.25;;
74528;SDS011;63009;52.584;5.932;2024-03-23T10:27:04;10.07;;;1.55;;
74528;SDS011;63009;52.584;5.932;2024-03-23T10:29:33;10.05;;;1.58;;
74528;SDS011;63009;52.584;5.932;2024-03-23T10:32:08;11.02;;;1.75;;
74528;SDS011;63009;52.584;5.932;2024-03-23T10:34:38;10.48;;;1.58;;
74528;SDS011;63009;52.584;5.932;2024-03-23T10:37:04;7.75;;;1.73;;
74528;SDS011;63009;52.584;5.932;2024-03-23T10:39:34;8.70;;;2.22;;
74528;SDS011;63009;52.584;5.932;2024-03-23T10:42:04;10.88;;;1.83;;
74528;SDS011;63009;52.584;5.932;2024-03-23T10:44:41;10.40;;;2.00;;
74528;SDS011;63009;52.584;5.932;2024-03-23T10:47:11;11.75;;;1.77;;
74528;SDS011;63009;52.584;5.932;2024-03-23T10:49:37;11.10;;;1.88;;
74528;SDS011;63009;52.584;5.932;2024-03-23T10:52:03;9.02;;;1.70;;
74528;SDS011;63009;52.584;5.932;2024-03-23T10:54:30;9.25;;;1.95;;
74528;SDS011;63009;52.584;5.932;2024-03-23T10:56:57;9.70;;;2.05;;
74528;SDS011;63009;52.584;5.932;2024-03-23T10:59:42;9.10;;;2.03;;
74528;SDS011;63009;52.584;5.932;2024-03-23T11:02:18;8.30;;;1.73;;
74528;SDS011;63009;52.584;5.932;2024-03-23T11:04:45;11.00;;;1.90;;
74528;SDS011;63009;52.584;5.932;2024-03-23T11:07:31;9.38;;;2.22;;
74528;SDS011;63009;52.584;5.932;2024-03-23T11:09:59;6.95;;;2.00;;
74528;SDS011;63009;52.584;5.932;2024-03-23T11:12:25;9.27;;;1.65;;
74528;SDS011;63009;52.584;5.932;2024-03-23T11:17:29;8.15;;;1.45;;
74528;SDS011;63009;52.584;5.932;2024-03-23T11:20:04;11.98;;;2.15;;
74528;SDS011;63009;52.584;5.932;2024-03-23T11:22:48;9.02;;;1.63;;
74528;SDS011;63009;52.584;5.932;2024-03-23T11:27:50;5.43;;;1.10;;
74528;SDS011;63009;52.584;5.932;2024-03-23T11:30:26;5.70;;;2.47;;
74528;SDS011;63009;52.584;5.932;2024-03-23T11:32:57;9.38;;;1.85;;
74528;SDS011;63009;52.584;5.932;2024-03-23T11:35:26;7.28;;;1.60;;
74528;SDS011;63009;52.584;5.932;2024-03-23T11:38:02;7.40;;;1.75;;
74528;SDS011;63009;52.584;5.932;2024-03-23T11:40:43;12.65;;;1.90;;
74528;SDS011;63009;52.584;5.932;2024-03-23T11:43:13;12.10;;;2.30;;
74528;SDS011;63009;52.584;5.932;2024-03-23T11:45:47;7.90;;;1.58;;
74528;SDS011;63009;52.584;5.932;2024-03-23T11:48:19;5.78;;;1.52;;
74528;SDS011;63009;52.584;5.932;2024-03-23T11:50:46;12.88;;;2.42;;
74528;SDS011;63009;52.584;5.932;2024-03-23T11:55:59;8.48;;;1.70;;
74528;SDS011;63009;52.584;5.932;2024-03-23T11:58:28;10.48;;;3.28;;
74528;SDS011;63009;52.584;5.932;2024-03-23T12:01:00;8.48;;;1.95;;
74528;SDS011;63009;52.584;5.932;2024-03-23T12:03:28;6.13;;;1.45;;
74528;SDS011;63009;52.584;5.932;2024-03-23T12:05:56;7.75;;;1.50;;
74528;SDS011;63009;52.584;5.932;2024-03-23T12:08:30;6.07;;;1.30;;
74528;SDS011;63009;52.584;5.932;2024-03-23T12:13:31;12.40;;;2.28;;
74528;SDS011;63009;52.584;5.932;2024-03-23T12:16:08;10.35;;;2.00;;
74528;SDS011;63009;52.584;5.932;2024-03-23T12:18:42;7.05;;;1.75;;
74528;SDS011;63009;52.584;5.932;2024-03-23T12:21:10;11.05;;;1.80;;
74528;SDS011;63009;52.584;5.932;2024-03-23T12:23:38;10.00;;;2.30;;
74528;SDS011;63009;52.584;5.932;2024-03-23T12:28:30;5.43;;;2.10;;
74528;SDS011;63009;52.584;5.932;2024-03-23T12:30:55;8.27;;;1.52;;
74528;SDS011;63009;52.584;5.932;2024-03-23T12:33:21;11.27;;;2.45;;
74528;SDS011;63009;52.584;5.932;2024-03-23T12:35:47;6.90;;;1.20;;
74528;SDS011;63009;52.584;5.932;2024-03-23T12:38:13;9.77;;;1.88;;
74528;SDS011;63009;52.584;5.932;2024-03-23T12:40:38;9.32;;;1.98;;
74528;SDS011;63009;52.584;5.932;2024-03-23T12:43:06;10.23;;;1.90;;
74528;SDS011;63009;52.584;5.932;2024-03-23T12:45:34;9.55;;;1.52;;
74528;SDS011;63009;52.584;5.932;2024-03-23T12:48:00;8.80;;;1.20;;
74528;SDS011;63009;52.584;5.932;2024-03-23T12:50:25;6.32;;;1.30;;
74528;SDS011;63009;52.584;5.932;2024-03-23T12:52:50;12.88;;;1.70;;
74528;SDS011;63009;52.584;5.932;2024-03-23T12:55:16;8.93;;;1.45;;
74528;SDS011;63009;52.584;5.932;2024-03-23T12:57:41;7.50;;;1.65;;
74528;SDS011;63009;52.584;5.932;2024-03-23T13:00:07;8.10;;;1.60;;
74528;SDS011;63009;52.584;5.932;2024-03-23T13:02:36;9.43;;;1.50;;
74528;SDS011;63009;52.584;5.932;2024-03-23T13:05:02;7.85;;;1.55;;
74528;SDS011;63009;52.584;5.932;2024-03-23T13:07:28;11.25;;;1.77;;
74528;SDS011;63009;52.584;5.932;2024-03-23T13:09:53;5.90;;;1.20;;
74528;SDS011;63009;52.584;5.932;2024-03-23T13:12:19;8.00;;;1.45;;
74528;SDS011;63009;52.584;5.932;2024-03-23T13:14:45;6.97;;;1.40;;
74528;SDS011;63009;52.584;5.932;2024-03-23T13:17:11;6.35;;;1.30;;
74528;SDS011;63009;52.584;5.932;2024-03-23T13:19:36;7.75;;;1.30;;
74528;SDS011;63009;52.584;5.932;2024-03-23T13:22:02;6.20;;;1.30;;
74528;SDS011;63009;52.584;5.932;2024-03-23T13:24:34;5.18;;;1.55;;
74528;SDS011;63009;52.584;5.932;2024-03-23T13:29:24;10.93;;;1.95;;
74528;SDS011;63009;52.584;5.932;2024-03-23T13:31:50;7.28;;;2.20;;
74528;SDS011;63009;52.584;5.932;2024-03-23T13:34:17;7.35;;;1.88;;
74528;SDS011;63009;52.584;5.932;2024-03-23T13:36:43;7.47;;;1.83;;
74528;SDS011;63009;52.584;5.932;2024-03-23T13:39:12;8.40;;;1.90;;
74528;SDS011;63009;52.584;5.932;2024-03-23T13:41:42;8.32;;;1.77;;
74528;SDS011;63009;52.584;5.932;2024-03-23T13:44:10;7.80;;;1.90;;
74528;SDS011;63009;52.584;5.932;2024-03-23T13:46:40;11.07;;;1.80;;
74528;SDS011;63009;52.584;5.932;2024-03-23T13:49:08;9.55;;;2.72;;
74528;SDS011;63009;52.584;5.932;2024-03-23T13:51:49;5.10;;;1.23;;
74528;SDS011;63009;52.584;5.932;2024-03-23T13:54:14;5.82;;;1.63;;
74528;SDS011;63009;52.584;5.932;2024-03-23T13:56:39;6.97;;;1.42;;
74528;SDS011;63009;52.584;5.932;2024-03-23T13:59:05;4.83;;;1.30;;
74528;SDS011;63009;52.584;5.932;2024-03-23T14:01:30;6.63;;;1.35;;
74528;SDS011;63009;52.584;5.932;2024-03-23T14:03:55;9.68;;;1.77;;
74528;SDS011;63009;52.584;5.932;2024-03-23T14:06:23;9.05;;;1.88;;
74528;SDS011;63009;52.584;5.932;2024-03-23T14:08:49;9.38;;;1.48;;
74528;SDS011;63009;52.584;5.932;2024-03-23T14:11:14;6.47;;;1.45;;
74528;SDS011;63009;52.584;5.932;2024-03-23T14:13:40;8.98;;;1.65;;
74528;SDS011;63009;52.584;5.932;2024-03-23T14:16:05;10.77;;;2.05;;
74528;SDS011;63009;52.584;5.932;2024-03-23T14:18:31;11.15;;;1.88;;
74528;SDS011;63009;52.584;5.932;2024-03-23T14:20:57;9.90;;;1.80;;
74528;SDS011;63009;52.584;5.932;2024-03-23T14:23:25;7.93;;;1.88;;
74528;SDS011;63009;52.584;5.932;2024-03-23T14:25:52;10.77;;;1.60;;
74528;SDS011;63009;52.584;5.932;2024-03-23T14:28:21;9.25;;;1.65;;
74528;SDS011;63009;52.584;5.932;2024-03-23T14:30:48;7.63;;;2.08;;
74528;SDS011;63009;52.584;5.932;2024-03-23T14:33:14;7.97;;;1.77;;
74528;SDS011;63009;52.584;5.932;2024-03-23T14:35:40;7.40;;;2.20;;
74528;SDS011;63009;52.584;5.932;2024-03-23T14:38:06;9.73;;;1.73;;
74528;SDS011;63009;52.584;5.932;2024-03-23T14:40:31;5.00;;;1.10;;
74528;SDS011;63009;52.584;5.932;2024-03-23T14:42:56;4.07;;;0.90;;
74528;SDS011;63009;52.584;5.932;2024-03-23T14:45:22;1.63;;;0.75;;
74528;SDS011;63009;52.584;5.932;2024-03-23T14:47:51;5.97;;;1.63;;
74528;SDS011;63009;52.584;5.932;2024-03-23T14:50:17;5.43;;;0.95;;
74528;SDS011;63009;52.584;5.932;2024-03-23T14:52:46;7.53;;;1.25;;
74528;SDS011;63009;52.584;5.932;2024-03-23T14:57:37;7.25;;;1.30;;
74528;SDS011;63009;52.584;5.932;2024-03-23T15:00:05;4.90;;;1.35;;
74528;SDS011;63009;52.584;5.932;2024-03-23T15:02:35;6.95;;;1.50;;
74528;SDS011;63009;52.584;5.932;2024-03-23T15:05:06;5.80;;;1.27;;
74528;SDS011;63009;52.584;5.932;2024-03-23T15:07:36;4.65;;;1.08;;
74528;SDS011;63009;52.584;5.932;2024-03-23T15:10:05;13.13;;;1.70;;
74528;SDS011;63009;52.584;5.932;2024-03-23T15:12:31;6.85;;;1.52;;
74528;SDS011;63009;52.584;5.932;2024-03-23T15:14:59;9.55;;;1.88;;
74528;SDS011;63009;52.584;5.932;2024-03-23T15:17:25;3.83;;;1.00;;
74528;SDS011;63009;52.584;5.932;2024-03-23T15:19:51;6.18;;;1.33;;
74528;SDS011;63009;52.584;5.932;2024-03-23T15:22:18;1.67;;;0.65;;
74528;SDS011;63009;52.584;5.932;2024-03-23T15:24:46;4.20;;;0.90;;
74528;SDS011;63009;52.584;5.932;2024-03-23T15:27:12;2.95;;;0.80;;
74528;SDS011;63009;52.584;5.932;2024-03-23T15:29:37;5.25;;;1.23;;
74528;SDS011;63009;52.584;5.932;2024-03-23T15:32:03;3.20;;;0.82;;
74528;SDS011;63009;52.584;5.932;2024-03-23T15:34:29;2.30;;;0.98;;
74528;SDS011;63009;52.584;5.932;2024-03-23T15:36:54;4.50;;;1.00;;
74528;SDS011;63009;52.584;5.932;2024-03-23T15:39:20;5.88;;;1.20;;
74528;SDS011;63009;52.584;5.932;2024-03-23T15:41:47;7.88;;;1.70;;
74528;SDS011;63009;52.584;5.932;2024-03-23T15:44:13;5.00;;;1.10;;
74528;SDS011;63009;52.584;5.932;2024-03-23T15:46:38;6.28;;;1.10;;
74528;SDS011;63009;52.584;5.932;2024-03-23T15:49:04;5.15;;;1.42;;
74528;SDS011;63009;52.584;5.932;2024-03-23T15:51:30;7.15;;;1.92;;